sensor_id;sensor_type;location;lat;lon;timestamp;P1;durP1;ratioP1;P2;durP2;ratioP2
61330;SDS011;57640;52.472;-1.950;2022-11-20T00:02:48;7.15;;;4.80;;
61330;SDS011;57640;52.472;-1.950;2022-11-20T00:05:58;5.60;;;4.60;;
61330;SDS011;57640;52.472;-1.950;2022-11-20T00:09:04;6.35;;;4.97;;
61330;SDS011;57640;52.472;-1.950;2022-11-20T00:12:10;7.35;;;5.00;;
61330;SDS011;57640;52.472;-1.950;2022-11-20T00:15:15;5.57;;;4.60;;
61330;SDS011;57640;52.472;-1.950;2022-11-20T00:18:21;7.75;;;4.85;;
61330;SDS011;57640;52.472;-1.950;2022-11-20T00:21:27;6.18;;;4.43;;
61330;SDS011;57640;52.472;-1.950;2022-11-20T00:24:33;6.95;;;4.85;;
61330;SDS011;57640;52.472;-1.950;2022-11-20T00:27:38;6.32;;;4.88;;
61330;SDS011;57640;52.472;-1.950;2022-11-20T00:30:44;8.32;;;4.57;;
61330;SDS011;57640;52.472;-1.950;2022-11-20T00:33:49;6.68;;;4.68;;
61330;SDS011;57640;52.472;-1.950;2022-11-20T00:36:57;7.72;;;5.00;;
61330;SDS011;57640;52.472;-1.950;2022-11-20T00:40:03;7.47;;;4.90;;
61330;SDS011;57640;52.472;-1.950;2022-11-20T00:43:08;6.40;;;4.43;;
61330;SDS011;57640;52.472;-1.950;2022-11-20T00:46:15;6.72;;;4.50;;
61330;SDS011;57640;52.472;-1.950;2022-11-20T00:49:21;6.32;;;4.60;;
61330;SDS011;57640;52.472;-1.950;2022-11-20T00:52:29;6.38;;;4.50;;
61330;SDS011;57640;52.472;-1.950;2022-11-20T00:55:34;5.83;;;4.50;;
61330;SDS011;57640;52.472;-1.950;2022-11-20T00:58:40;5.03;;;4.20;;
61330;SDS011;57640;52.472;-1.950;2022-11-20T01:01:46;6.55;;;4.50;;
61330;SDS011;57640;52.472;-1.950;2022-11-20T01:04:51;5.38;;;4.15;;
61330;SDS011;57640;52.472;-1.950;2022-11-20T01:07:59;7.13;;;4.80;;
61330;SDS011;57640;52.472;-1.950;2022-11-20T01:11:06;6.50;;;3.80;;
61330;SDS011;57640;52.472;-1.950;2022-11-20T01:14:12;4.82;;;3.92;;
61330;SDS011;57640;52.472;-1.950;2022-11-20T01:17:17;5.85;;;4.10;;
61330;SDS011;57640;52.472;-1.950;2022-11-20T01:20:23;5.72;;;4.05;;
61330;SDS011;57640;52.472;-1.950;2022-11-20T01:23:32;5.65;;;4.00;;
61330;SDS011;57640;52.472;-1.950;2022-11-20T01:26:38;5.97;;;4.22;;
61330;SDS011;57640;52.472;-1.950;2022-11-20T01:29:44;4.65;;;3.90;;
61330;SDS011;57640;52.472;-1.950;2022-11-20T01:32:49;5.20;;;3.83;;
61330;SDS011;57640;52.472;-1.950;2022-11-20T01:36:02;4.47;;;3.70;;
61330;SDS011;57640;52.472;-1.950;2022-11-20T01:39:12;5.60;;;3.70;;
61330;SDS011;57640;52.472;-1.950;2022-11-20T01:42:18;6.55;;;4.05;;
61330;SDS011;57640;52.472;-1.950;2022-11-20T01:48:57;5.20;;;3.63;;
61330;SDS011;57640;52.472;-1.950;2022-11-20T01:52:04;4.95;;;3.85;;
61330;SDS011;57640;52.472;-1.950;2022-11-20T01:55:15;6.22;;;3.85;;
61330;SDS011;57640;52.472;-1.950;2022-11-20T01:58:23;5.85;;;4.00;;
61330;SDS011;57640;52.472;-1.950;2022-11-20T02:01:30;6.10;;;4.07;;
61330;SDS011;57640;52.472;-1.950;2022-11-20T02:04:36;6.32;;;3.60;;
61330;SDS011;57640;52.472;-1.950;2022-11-20T02:07:41;5.30;;;3.50;;
61330;SDS011;57640;52.472;-1.950;2022-11-20T02:10:49;4.50;;;3.58;;
61330;SDS011;57640;52.472;-1.950;2022-11-20T02:13:55;6.23;;;3.80;;
61330;SDS011;57640;52.472;-1.950;2022-11-20T02:17:00;5.22;;;3.47;;
61330;SDS011;57640;52.472;-1.950;2022-11-20T02:20:06;5.05;;;3.53;;
61330;SDS011;57640;52.472;-1.950;2022-11-20T02:23:13;5.75;;;3.60;;
61330;SDS011;57640;52.472;-1.950;2022-11-20T02:26:24;4.78;;;3.42;;
61330;SDS011;57640;52.472;-1.950;2022-11-20T02:29:32;4.53;;;3.38;;
61330;SDS011;57640;52.472;-1.950;2022-11-20T02:32:38;4.10;;;3.70;;
61330;SDS011;57640;52.472;-1.950;2022-11-20T02:35:45;4.55;;;3.42;;
61330;SDS011;57640;52.472;-1.950;2022-11-20T02:38:50;4.93;;;3.25;;
61330;SDS011;57640;52.472;-1.950;2022-11-20T02:42:00;4.43;;;3.33;;
61330;SDS011;57640;52.472;-1.950;2022-11-20T02:45:06;5.63;;;3.40;;
61330;SDS011;57640;52.472;-1.950;2022-11-20T02:48:12;5.18;;;3.38;;
61330;SDS011;57640;52.472;-1.950;2022-11-20T02:51:17;4.07;;;3.03;;
61330;SDS011;57640;52.472;-1.950;2022-11-20T02:54:23;5.28;;;3.50;;
61330;SDS011;57640;52.472;-1.950;2022-11-20T02:57:31;4.82;;;3.35;;
61330;SDS011;57640;52.472;-1.950;2022-11-20T03:00:36;4.40;;;3.17;;
61330;SDS011;57640;52.472;-1.950;2022-11-20T03:03:41;4.72;;;3.17;;
61330;SDS011;57640;52.472;-1.950;2022-11-20T03:06:47;3.88;;;2.95;;
61330;SDS011;57640;52.472;-1.950;2022-11-20T03:09:52;4.50;;;2.88;;
61330;SDS011;57640;52.472;-1.950;2022-11-20T03:13:00;4.40;;;3.22;;
61330;SDS011;57640;52.472;-1.950;2022-11-20T03:16:07;3.88;;;2.97;;
61330;SDS011;57640;52.472;-1.950;2022-11-20T03:19:13;4.65;;;2.90;;
61330;SDS011;57640;52.472;-1.950;2022-11-20T03:22:19;3.95;;;3.10;;
61330;SDS011;57640;52.472;-1.950;2022-11-20T03:25:24;3.95;;;2.70;;
61330;SDS011;57640;52.472;-1.950;2022-11-20T03:28:32;4.30;;;2.97;;
61330;SDS011;57640;52.472;-1.950;2022-11-20T03:31:38;4.53;;;2.80;;
61330;SDS011;57640;52.472;-1.950;2022-11-20T03:34:44;5.63;;;3.28;;
61330;SDS011;57640;52.472;-1.950;2022-11-20T03:37:50;3.78;;;2.65;;
61330;SDS011;57640;52.472;-1.950;2022-11-20T03:40:57;3.63;;;2.70;;
61330;SDS011;57640;52.472;-1.950;2022-11-20T03:44:06;4.18;;;2.65;;
61330;SDS011;57640;52.472;-1.950;2022-11-20T03:47:11;3.42;;;2.67;;
61330;SDS011;57640;52.472;-1.950;2022-11-20T03:50:17;3.58;;;2.47;;
61330;SDS011;57640;52.472;-1.950;2022-11-20T03:53:22;3.55;;;2.72;;
61330;SDS011;57640;52.472;-1.950;2022-11-20T03:56:28;3.08;;;2.50;;
61330;SDS011;57640;52.472;-1.950;2022-11-20T03:59:42;3.10;;;2.50;;
61330;SDS011;57640;52.472;-1.950;2022-11-20T04:02:47;4.17;;;2.60;;
61330;SDS011;57640;52.472;-1.950;2022-11-20T04:05:52;3.20;;;2.65;;
61330;SDS011;57640;52.472;-1.950;2022-11-20T04:08:58;3.22;;;2.30;;
61330;SDS011;57640;52.472;-1.950;2022-11-20T04:12:01;3.80;;;2.40;;
61330;SDS011;57640;52.472;-1.950;2022-11-20T04:15:09;3.47;;;2.30;;
61330;SDS011;57640;52.472;-1.950;2022-11-20T04:18:15;3.47;;;2.30;;
61330;SDS011;57640;52.472;-1.950;2022-11-20T04:21:20;3.40;;;2.20;;
61330;SDS011;57640;52.472;-1.950;2022-11-20T04:24:26;3.60;;;2.30;;
61330;SDS011;57640;52.472;-1.950;2022-11-20T04:27:31;3.08;;;2.22;;
61330;SDS011;57640;52.472;-1.950;2022-11-20T04:30:39;3.38;;;2.35;;
61330;SDS011;57640;52.472;-1.950;2022-11-20T04:33:45;4.20;;;2.67;;
61330;SDS011;57640;52.472;-1.950;2022-11-20T04:36:50;3.45;;;2.33;;
61330;SDS011;57640;52.472;-1.950;2022-11-20T04:39:56;3.60;;;2.40;;
61330;SDS011;57640;52.472;-1.950;2022-11-20T04:43:01;3.88;;;2.28;;
61330;SDS011;57640;52.472;-1.950;2022-11-20T04:46:09;3.45;;;2.20;;
61330;SDS011;57640;52.472;-1.950;2022-11-20T04:49:14;3.53;;;2.30;;
61330;SDS011;57640;52.472;-1.950;2022-11-20T04:52:20;2.33;;;2.03;;
61330;SDS011;57640;52.472;-1.950;2022-11-20T04:55:25;3.30;;;2.17;;
61330;SDS011;57640;52.472;-1.950;2022-11-20T04:58:30;2.47;;;2.00;;
61330;SDS011;57640;52.472;-1.950;2022-11-20T05:01:39;2.50;;;1.98;;
61330;SDS011;57640;52.472;-1.950;2022-11-20T05:04:44;2.17;;;1.97;;
61330;SDS011;57640;52.472;-1.950;2022-11-20T05:07:49;2.47;;;1.80;;
61330;SDS011;57640;52.472;-1.950;2022-11-20T05:10:58;2.97;;;1.80;;
61330;SDS011;57640;52.472;-1.950;2022-11-20T05:14:04;2.55;;;1.90;;
61330;SDS011;57640;52.472;-1.950;2022-11-20T05:17:12;3.03;;;1.92;;
61330;SDS011;57640;52.472;-1.950;2022-11-20T05:20:18;2.55;;;1.90;;
61330;SDS011;57640;52.472;-1.950;2022-11-20T05:23:23;2.40;;;2.03;;
61330;SDS011;57640;52.472;-1.950;2022-11-20T05:26:29;2.30;;;1.65;;
61330;SDS011;57640;52.472;-1.950;2022-11-20T05:29:34;2.30;;;1.85;;
61330;SDS011;57640;52.472;-1.950;2022-11-20T05:32:42;3.38;;;1.83;;
61330;SDS011;57640;52.472;-1.950;2022-11-20T05:35:48;2.10;;;1.80;;
61330;SDS011;57640;52.472;-1.950;2022-11-20T05:38:54;2.03;;;1.65;;
61330;SDS011;57640;52.472;-1.950;2022-11-20T05:41:59;2.25;;;1.70;;
61330;SDS011;57640;52.472;-1.950;2022-11-20T05:45:20;2.33;;;1.90;;
61330;SDS011;57640;52.472;-1.950;2022-11-20T05:48:28;2.78;;;1.67;;
61330;SDS011;57640;52.472;-1.950;2022-11-20T05:51:33;2.83;;;1.80;;
61330;SDS011;57640;52.472;-1.950;2022-11-20T05:54:39;1.65;;;1.52;;
61330;SDS011;57640;52.472;-1.950;2022-11-20T05:57:44;1.90;;;1.60;;
61330;SDS011;57640;52.472;-1.950;2022-11-20T06:00:49;2.38;;;1.75;;
61330;SDS011;57640;52.472;-1.950;2022-11-20T06:03:58;2.28;;;1.75;;
61330;SDS011;57640;52.472;-1.950;2022-11-20T06:07:04;2.72;;;1.70;;
61330;SDS011;57640;52.472;-1.950;2022-11-20T06:10:09;2.15;;;1.73;;
61330;SDS011;57640;52.472;-1.950;2022-11-20T06:13:15;3.03;;;1.80;;
61330;SDS011;57640;52.472;-1.950;2022-11-20T06:16:20;1.95;;;1.67;;
61330;SDS011;57640;52.472;-1.950;2022-11-20T06:19:28;1.70;;;1.40;;
61330;SDS011;57640;52.472;-1.950;2022-11-20T06:22:34;2.13;;;1.50;;
61330;SDS011;57640;52.472;-1.950;2022-11-20T06:25:39;1.92;;;1.40;;
61330;SDS011;57640;52.472;-1.950;2022-11-20T06:28:45;2.55;;;1.50;;
61330;SDS011;57640;52.472;-1.950;2022-11-20T06:31:50;2.53;;;1.80;;
61330;SDS011;57640;52.472;-1.950;2022-11-20T06:34:58;1.70;;;1.35;;
61330;SDS011;57640;52.472;-1.950;2022-11-20T06:38:03;2.33;;;1.57;;
61330;SDS011;57640;52.472;-1.950;2022-11-20T06:41:10;2.03;;;1.40;;
61330;SDS011;57640;52.472;-1.950;2022-11-20T06:44:15;1.90;;;1.50;;
61330;SDS011;57640;52.472;-1.950;2022-11-20T06:47:21;2.08;;;1.50;;
61330;SDS011;57640;52.472;-1.950;2022-11-20T06:50:28;1.95;;;1.50;;
61330;SDS011;57640;52.472;-1.950;2022-11-20T06:53:34;1.93;;;1.40;;
61330;SDS011;57640;52.472;-1.950;2022-11-20T06:56:39;2.70;;;1.50;;
61330;SDS011;57640;52.472;-1.950;2022-11-20T06:59:45;2.00;;;1.33;;
61330;SDS011;57640;52.472;-1.950;2022-11-20T07:02:50;1.33;;;1.20;;
61330;SDS011;57640;52.472;-1.950;2022-11-20T07:05:58;1.80;;;1.50;;
61330;SDS011;57640;52.472;-1.950;2022-11-20T07:09:04;1.98;;;1.50;;
61330;SDS011;57640;52.472;-1.950;2022-11-20T07:12:10;2.15;;;1.40;;
61330;SDS011;57640;52.472;-1.950;2022-11-20T07:15:15;1.65;;;1.40;;
61330;SDS011;57640;52.472;-1.950;2022-11-20T07:18:20;1.40;;;1.30;;
61330;SDS011;57640;52.472;-1.950;2022-11-20T07:21:28;2.03;;;1.30;;
61330;SDS011;57640;52.472;-1.950;2022-11-20T07:24:34;1.87;;;1.37;;
61330;SDS011;57640;52.472;-1.950;2022-11-20T07:27:39;2.42;;;1.23;;
61330;SDS011;57640;52.472;-1.950;2022-11-20T07:30:49;1.52;;;1.10;;
61330;SDS011;57640;52.472;-1.950;2022-11-20T07:33:54;2.20;;;1.30;;
61330;SDS011;57640;52.472;-1.950;2022-11-20T07:37:02;1.98;;;1.20;;
61330;SDS011;57640;52.472;-1.950;2022-11-20T07:40:08;2.20;;;1.40;;
61330;SDS011;57640;52.472;-1.950;2022-11-20T07:43:13;1.67;;;1.27;;
61330;SDS011;57640;52.472;-1.950;2022-11-20T07:46:19;2.50;;;1.25;;
61330;SDS011;57640;52.472;-1.950;2022-11-20T07:49:24;1.50;;;1.20;;
61330;SDS011;57640;52.472;-1.950;2022-11-20T07:52:32;1.23;;;1.13;;
61330;SDS011;57640;52.472;-1.950;2022-11-20T07:55:37;2.40;;;1.33;;
61330;SDS011;57640;52.472;-1.950;2022-11-20T07:58:43;2.88;;;1.30;;
61330;SDS011;57640;52.472;-1.950;2022-11-20T08:01:50;1.70;;;1.13;;
61330;SDS011;57640;52.472;-1.950;2022-11-20T08:04:55;2.03;;;1.10;;
61330;SDS011;57640;52.472;-1.950;2022-11-20T08:08:03;1.25;;;1.13;;
61330;SDS011;57640;52.472;-1.950;2022-11-20T08:11:09;3.38;;;1.77;;
61330;SDS011;57640;52.472;-1.950;2022-11-20T08:14:27;3.20;;;1.13;;
61330;SDS011;57640;52.472;-1.950;2022-11-20T08:17:32;2.08;;;1.20;;
61330;SDS011;57640;52.472;-1.950;2022-11-20T08:20:38;1.63;;;1.13;;
61330;SDS011;57640;52.472;-1.950;2022-11-20T08:23:46;1.15;;;1.00;;
61330;SDS011;57640;52.472;-1.950;2022-11-20T08:26:51;2.20;;;1.20;;
61330;SDS011;57640;52.472;-1.950;2022-11-20T08:29:57;1.88;;;1.10;;
61330;SDS011;57640;52.472;-1.950;2022-11-20T08:33:03;2.08;;;1.20;;
61330;SDS011;57640;52.472;-1.950;2022-11-20T08:36:08;2.00;;;1.15;;
61330;SDS011;57640;52.472;-1.950;2022-11-20T08:39:16;1.58;;;1.10;;
61330;SDS011;57640;52.472;-1.950;2022-11-20T08:42:22;1.75;;;1.10;;
61330;SDS011;57640;52.472;-1.950;2022-11-20T08:45:27;1.73;;;1.05;;
61330;SDS011;57640;52.472;-1.950;2022-11-20T08:48:32;2.13;;;1.20;;
61330;SDS011;57640;52.472;-1.950;2022-11-20T08:51:38;2.47;;;1.20;;
61330;SDS011;57640;52.472;-1.950;2022-11-20T08:54:46;1.50;;;1.00;;
61330;SDS011;57640;52.472;-1.950;2022-11-20T08:57:52;2.53;;;1.00;;
61330;SDS011;57640;52.472;-1.950;2022-11-20T09:00:57;2.58;;;1.00;;
61330;SDS011;57640;52.472;-1.950;2022-11-20T09:04:02;1.63;;;1.20;;
61330;SDS011;57640;52.472;-1.950;2022-11-20T09:07:08;3.67;;;1.10;;
61330;SDS011;57640;52.472;-1.950;2022-11-20T09:10:16;3.15;;;1.10;;
61330;SDS011;57640;52.472;-1.950;2022-11-20T09:13:21;1.93;;;1.20;;
61330;SDS011;57640;52.472;-1.950;2022-11-20T09:16:27;1.70;;;1.20;;
61330;SDS011;57640;52.472;-1.950;2022-11-20T09:19:32;3.40;;;1.38;;
61330;SDS011;57640;52.472;-1.950;2022-11-20T09:22:39;3.50;;;1.20;;
61330;SDS011;57640;52.472;-1.950;2022-11-20T09:25:47;1.50;;;1.02;;
61330;SDS011;57640;52.472;-1.950;2022-11-20T09:28:52;2.80;;;1.07;;
61330;SDS011;57640;52.472;-1.950;2022-11-20T09:31:58;2.50;;;1.17;;
61330;SDS011;57640;52.472;-1.950;2022-11-20T09:35:04;2.55;;;1.10;;
61330;SDS011;57640;52.472;-1.950;2022-11-20T09:38:09;2.33;;;1.02;;
61330;SDS011;57640;52.472;-1.950;2022-11-20T09:41:24;3.72;;;1.10;;
61330;SDS011;57640;52.472;-1.950;2022-11-20T09:44:42;1.92;;;1.02;;
61330;SDS011;57640;52.472;-1.950;2022-11-20T09:47:54;2.08;;;1.20;;
61330;SDS011;57640;52.472;-1.950;2022-11-20T09:51:04;3.15;;;1.05;;
61330;SDS011;57640;52.472;-1.950;2022-11-20T09:54:15;4.63;;;1.45;;
61330;SDS011;57640;52.472;-1.950;2022-11-20T09:57:25;2.67;;;1.15;;
61330;SDS011;57640;52.472;-1.950;2022-11-20T10:00:32;4.47;;;1.40;;
61330;SDS011;57640;52.472;-1.950;2022-11-20T10:03:39;2.53;;;1.00;;
61330;SDS011;57640;52.472;-1.950;2022-11-20T10:06:47;3.15;;;1.50;;
61330;SDS011;57640;52.472;-1.950;2022-11-20T10:09:56;2.17;;;1.17;;
61330;SDS011;57640;52.472;-1.950;2022-11-20T10:13:09;3.10;;;1.10;;
61330;SDS011;57640;52.472;-1.950;2022-11-20T10:16:21;2.35;;;1.20;;
61330;SDS011;57640;52.472;-1.950;2022-11-20T10:19:38;3.60;;;1.50;;
61330;SDS011;57640;52.472;-1.950;2022-11-20T10:22:51;3.28;;;1.15;;
61330;SDS011;57640;52.472;-1.950;2022-11-20T10:26:00;3.47;;;1.17;;
61330;SDS011;57640;52.472;-1.950;2022-11-20T10:29:10;3.92;;;1.27;;
61330;SDS011;57640;52.472;-1.950;2022-11-20T10:32:18;4.18;;;1.50;;
61330;SDS011;57640;52.472;-1.950;2022-11-20T10:35:25;3.65;;;1.27;;
61330;SDS011;57640;52.472;-1.950;2022-11-20T10:38:34;5.35;;;1.30;;
61330;SDS011;57640;52.472;-1.950;2022-11-20T10:44:49;4.47;;;1.45;;
61330;SDS011;57640;52.472;-1.950;2022-11-20T10:48:10;3.45;;;1.23;;
61330;SDS011;57640;52.472;-1.950;2022-11-20T10:51:19;4.53;;;1.30;;
61330;SDS011;57640;52.472;-1.950;2022-11-20T10:54:30;3.10;;;1.33;;
61330;SDS011;57640;52.472;-1.950;2022-11-20T10:57:44;5.05;;;1.50;;
61330;SDS011;57640;52.472;-1.950;2022-11-20T11:00:54;4.85;;;1.40;;
61330;SDS011;57640;52.472;-1.950;2022-11-20T11:04:13;2.85;;;1.20;;
61330;SDS011;57640;52.472;-1.950;2022-11-20T11:07:23;4.20;;;1.45;;
61330;SDS011;57640;52.472;-1.950;2022-11-20T11:10:32;3.20;;;1.27;;
61330;SDS011;57640;52.472;-1.950;2022-11-20T11:13:41;3.83;;;1.30;;
61330;SDS011;57640;52.472;-1.950;2022-11-20T11:16:52;2.78;;;1.23;;
61330;SDS011;57640;52.472;-1.950;2022-11-20T11:20:06;5.47;;;1.35;;
61330;SDS011;57640;52.472;-1.950;2022-11-20T11:23:22;4.68;;;1.60;;
61330;SDS011;57640;52.472;-1.950;2022-11-20T11:26:31;3.92;;;1.25;;
61330;SDS011;57640;52.472;-1.950;2022-11-20T11:29:37;3.20;;;1.50;;
61330;SDS011;57640;52.472;-1.950;2022-11-20T11:32:45;6.03;;;1.70;;
61330;SDS011;57640;52.472;-1.950;2022-11-20T11:35:51;3.58;;;1.45;;
61330;SDS011;57640;52.472;-1.950;2022-11-20T11:42:04;4.25;;;1.33;;
61330;SDS011;57640;52.472;-1.950;2022-11-20T11:45:11;3.15;;;1.40;;
61330;SDS011;57640;52.472;-1.950;2022-11-20T11:48:22;7.13;;;1.70;;
61330;SDS011;57640;52.472;-1.950;2022-11-20T11:51:32;5.30;;;1.60;;
61330;SDS011;57640;52.472;-1.950;2022-11-20T11:54:41;5.35;;;1.60;;
61330;SDS011;57640;52.472;-1.950;2022-11-20T11:57:49;4.55;;;1.30;;
61330;SDS011;57640;52.472;-1.950;2022-11-20T12:00:57;5.10;;;1.95;;
61330;SDS011;57640;52.472;-1.950;2022-11-20T12:04:09;4.53;;;1.65;;
61330;SDS011;57640;52.472;-1.950;2022-11-20T12:07:19;5.43;;;1.67;;
61330;SDS011;57640;52.472;-1.950;2022-11-20T12:10:30;4.50;;;1.80;;
61330;SDS011;57640;52.472;-1.950;2022-11-20T12:13:43;5.20;;;1.70;;
61330;SDS011;57640;52.472;-1.950;2022-11-20T12:16:50;4.70;;;1.60;;
61330;SDS011;57640;52.472;-1.950;2022-11-20T12:20:00;5.40;;;1.50;;
61330;SDS011;57640;52.472;-1.950;2022-11-20T12:23:07;4.33;;;1.50;;
61330;SDS011;57640;52.472;-1.950;2022-11-20T12:26:16;4.72;;;1.52;;
61330;SDS011;57640;52.472;-1.950;2022-11-20T12:29:28;4.63;;;1.50;;
61330;SDS011;57640;52.472;-1.950;2022-11-20T12:36:01;5.95;;;1.50;;
61330;SDS011;57640;52.472;-1.950;2022-11-20T12:39:17;4.30;;;1.30;;
61330;SDS011;57640;52.472;-1.950;2022-11-20T12:42:33;3.30;;;1.42;;
61330;SDS011;57640;52.472;-1.950;2022-11-20T12:45:58;4.50;;;1.40;;
61330;SDS011;57640;52.472;-1.950;2022-11-20T12:49:22;6.28;;;1.63;;
61330;SDS011;57640;52.472;-1.950;2022-11-20T12:52:35;4.95;;;1.73;;
61330;SDS011;57640;52.472;-1.950;2022-11-20T12:55:46;3.38;;;1.38;;
61330;SDS011;57640;52.472;-1.950;2022-11-20T12:58:55;3.83;;;1.23;;
61330;SDS011;57640;52.472;-1.950;2022-11-20T13:02:05;3.92;;;1.48;;
61330;SDS011;57640;52.472;-1.950;2022-11-20T13:05:20;4.72;;;1.50;;
61330;SDS011;57640;52.472;-1.950;2022-11-20T13:08:30;4.80;;;1.35;;
61330;SDS011;57640;52.472;-1.950;2022-11-20T13:11:38;5.10;;;1.52;;
61330;SDS011;57640;52.472;-1.950;2022-11-20T13:14:46;5.80;;;1.83;;
61330;SDS011;57640;52.472;-1.950;2022-11-20T13:17:56;2.53;;;1.23;;
61330;SDS011;57640;52.472;-1.950;2022-11-20T13:21:12;4.65;;;1.27;;
61330;SDS011;57640;52.472;-1.950;2022-11-20T13:24:27;3.05;;;1.27;;
61330;SDS011;57640;52.472;-1.950;2022-11-20T13:27:33;4.63;;;1.60;;
61330;SDS011;57640;52.472;-1.950;2022-11-20T13:30:48;4.85;;;1.52;;
61330;SDS011;57640;52.472;-1.950;2022-11-20T13:33:54;3.22;;;1.35;;
61330;SDS011;57640;52.472;-1.950;2022-11-20T13:37:00;3.42;;;1.45;;
61330;SDS011;57640;52.472;-1.950;2022-11-20T13:40:19;4.00;;;1.73;;
61330;SDS011;57640;52.472;-1.950;2022-11-20T13:43:32;3.92;;;1.48;;
61330;SDS011;57640;52.472;-1.950;2022-11-20T13:46:40;4.65;;;1.52;;
61330;SDS011;57640;52.472;-1.950;2022-11-20T13:49:46;4.20;;;1.50;;
61330;SDS011;57640;52.472;-1.950;2022-11-20T13:52:54;5.13;;;1.50;;
61330;SDS011;57640;52.472;-1.950;2022-11-20T13:56:07;4.18;;;1.20;;
61330;SDS011;57640;52.472;-1.950;2022-11-20T13:59:20;3.70;;;1.20;;
61330;SDS011;57640;52.472;-1.950;2022-11-20T14:02:30;3.70;;;1.48;;
61330;SDS011;57640;52.472;-1.950;2022-11-20T14:05:36;2.97;;;1.30;;
61330;SDS011;57640;52.472;-1.950;2022-11-20T14:08:42;4.63;;;1.67;;
61330;SDS011;57640;52.472;-1.950;2022-11-20T14:11:52;3.22;;;1.38;;
61330;SDS011;57640;52.472;-1.950;2022-11-20T14:14:57;2.90;;;1.17;;
61330;SDS011;57640;52.472;-1.950;2022-11-20T14:18:11;4.35;;;1.63;;
61330;SDS011;57640;52.472;-1.950;2022-11-20T14:21:24;6.15;;;1.60;;
61330;SDS011;57640;52.472;-1.950;2022-11-20T14:24:29;5.32;;;1.48;;
61330;SDS011;57640;52.472;-1.950;2022-11-20T14:27:38;2.85;;;1.30;;
61330;SDS011;57640;52.472;-1.950;2022-11-20T14:30:47;3.55;;;1.60;;
61330;SDS011;57640;52.472;-1.950;2022-11-20T14:33:53;3.17;;;1.35;;
61330;SDS011;57640;52.472;-1.950;2022-11-20T14:36:59;3.45;;;1.40;;
61330;SDS011;57640;52.472;-1.950;2022-11-20T14:40:20;3.95;;;1.52;;
61330;SDS011;57640;52.472;-1.950;2022-11-20T14:43:29;5.95;;;1.65;;
61330;SDS011;57640;52.472;-1.950;2022-11-20T14:49:40;5.18;;;1.45;;
61330;SDS011;57640;52.472;-1.950;2022-11-20T14:52:52;3.45;;;1.30;;
61330;SDS011;57640;52.472;-1.950;2022-11-20T14:55:58;2.85;;;1.20;;
61330;SDS011;57640;52.472;-1.950;2022-11-20T14:59:07;4.07;;;1.50;;
61330;SDS011;57640;52.472;-1.950;2022-11-20T15:02:13;5.35;;;1.55;;
61330;SDS011;57640;52.472;-1.950;2022-11-20T15:05:19;3.35;;;1.20;;
61330;SDS011;57640;52.472;-1.950;2022-11-20T15:08:24;3.13;;;1.38;;
61330;SDS011;57640;52.472;-1.950;2022-11-20T15:11:31;2.83;;;1.25;;
61330;SDS011;57640;52.472;-1.950;2022-11-20T15:14:39;3.70;;;1.40;;
61330;SDS011;57640;52.472;-1.950;2022-11-20T15:17:44;2.55;;;1.10;;
61330;SDS011;57640;52.472;-1.950;2022-11-20T15:20:50;3.83;;;1.50;;
61330;SDS011;57640;52.472;-1.950;2022-11-20T15:23:56;2.53;;;1.17;;
61330;SDS011;57640;52.472;-1.950;2022-11-20T15:27:03;2.67;;;1.20;;
61330;SDS011;57640;52.472;-1.950;2022-11-20T15:30:15;2.53;;;1.23;;
61330;SDS011;57640;52.472;-1.950;2022-11-20T15:33:20;3.30;;;1.13;;
61330;SDS011;57640;52.472;-1.950;2022-11-20T15:36:26;2.38;;;1.20;;
61330;SDS011;57640;52.472;-1.950;2022-11-20T15:39:31;4.07;;;1.20;;
61330;SDS011;57640;52.472;-1.950;2022-11-20T15:42:37;2.80;;;1.30;;
61330;SDS011;57640;52.472;-1.950;2022-11-20T15:46:05;2.78;;;1.10;;
61330;SDS011;57640;52.472;-1.950;2022-11-20T15:49:12;2.53;;;1.00;;
61330;SDS011;57640;52.472;-1.950;2022-11-20T15:52:18;2.15;;;1.00;;
61330;SDS011;57640;52.472;-1.950;2022-11-20T15:55:23;2.00;;;1.20;;
61330;SDS011;57640;52.472;-1.950;2022-11-20T15:58:29;3.60;;;1.20;;
61330;SDS011;57640;52.472;-1.950;2022-11-20T16:01:37;2.28;;;1.00;;
61330;SDS011;57640;52.472;-1.950;2022-11-20T16:04:43;1.83;;;1.00;;
61330;SDS011;57640;52.472;-1.950;2022-11-20T16:07:48;2.58;;;1.23;;
61330;SDS011;57640;52.472;-1.950;2022-11-20T16:10:53;3.47;;;1.30;;
61330;SDS011;57640;52.472;-1.950;2022-11-20T16:13:59;2.83;;;1.00;;
61330;SDS011;57640;52.472;-1.950;2022-11-20T16:17:19;2.28;;;1.20;;
61330;SDS011;57640;52.472;-1.950;2022-11-20T16:20:44;1.77;;;1.17;;
61330;SDS011;57640;52.472;-1.950;2022-11-20T16:23:50;2.58;;;1.30;;
61330;SDS011;57640;52.472;-1.950;2022-11-20T16:26:55;3.00;;;1.30;;
61330;SDS011;57640;52.472;-1.950;2022-11-20T16:30:01;2.95;;;1.23;;
61330;SDS011;57640;52.472;-1.950;2022-11-20T16:33:11;2.95;;;1.10;;
61330;SDS011;57640;52.472;-1.950;2022-11-20T16:36:17;1.88;;;1.02;;
61330;SDS011;57640;52.472;-1.950;2022-11-20T16:39:24;2.58;;;1.10;;
61330;SDS011;57640;52.472;-1.950;2022-11-20T16:42:30;2.45;;;1.10;;
61330;SDS011;57640;52.472;-1.950;2022-11-20T16:45:39;2.58;;;1.20;;
61330;SDS011;57640;52.472;-1.950;2022-11-20T16:48:47;1.90;;;1.15;;
61330;SDS011;57640;52.472;-1.950;2022-11-20T16:51:56;2.13;;;1.00;;
61330;SDS011;57640;52.472;-1.950;2022-11-20T16:55:02;1.98;;;1.02;;
61330;SDS011;57640;52.472;-1.950;2022-11-20T16:58:08;3.50;;;1.15;;
61330;SDS011;57640;52.472;-1.950;2022-11-20T17:01:14;1.52;;;1.00;;
61330;SDS011;57640;52.472;-1.950;2022-11-20T17:04:24;1.90;;;1.10;;
61330;SDS011;57640;52.472;-1.950;2022-11-20T17:07:30;2.30;;;1.00;;
61330;SDS011;57640;52.472;-1.950;2022-11-20T17:10:35;1.40;;;1.02;;
61330;SDS011;57640;52.472;-1.950;2022-11-20T17:13:40;2.28;;;1.20;;
61330;SDS011;57640;52.472;-1.950;2022-11-20T17:16:46;2.17;;;1.10;;
61330;SDS011;57640;52.472;-1.950;2022-11-20T17:19:54;2.60;;;1.27;;
61330;SDS011;57640;52.472;-1.950;2022-11-20T17:22:59;2.10;;;1.10;;
61330;SDS011;57640;52.472;-1.950;2022-11-20T17:26:05;1.85;;;1.00;;
61330;SDS011;57640;52.472;-1.950;2022-11-20T17:29:12;2.00;;;1.10;;
61330;SDS011;57640;52.472;-1.950;2022-11-20T17:32:17;2.42;;;1.20;;
61330;SDS011;57640;52.472;-1.950;2022-11-20T17:35:25;1.77;;;0.90;;
61330;SDS011;57640;52.472;-1.950;2022-11-20T17:38:31;2.80;;;1.47;;
61330;SDS011;57640;52.472;-1.950;2022-11-20T17:41:36;2.90;;;1.25;;
61330;SDS011;57640;52.472;-1.950;2022-11-20T17:44:41;2.05;;;1.23;;
61330;SDS011;57640;52.472;-1.950;2022-11-20T17:47:48;2.08;;;1.10;;
61330;SDS011;57640;52.472;-1.950;2022-11-20T17:51:00;1.83;;;0.95;;
61330;SDS011;57640;52.472;-1.950;2022-11-20T17:54:06;1.45;;;1.08;;
61330;SDS011;57640;52.472;-1.950;2022-11-20T17:57:11;3.92;;;1.10;;
61330;SDS011;57640;52.472;-1.950;2022-11-20T18:00:29;2.55;;;1.35;;
61330;SDS011;57640;52.472;-1.950;2022-11-20T18:03:34;1.90;;;0.90;;
61330;SDS011;57640;52.472;-1.950;2022-11-20T18:06:43;1.85;;;1.15;;
61330;SDS011;57640;52.472;-1.950;2022-11-20T18:09:48;1.60;;;1.10;;
61330;SDS011;57640;52.472;-1.950;2022-11-20T18:12:54;2.25;;;1.20;;
61330;SDS011;57640;52.472;-1.950;2022-11-20T18:16:05;2.20;;;1.17;;
61330;SDS011;57640;52.472;-1.950;2022-11-20T18:19:11;2.25;;;1.02;;
61330;SDS011;57640;52.472;-1.950;2022-11-20T18:22:19;2.72;;;1.30;;
61330;SDS011;57640;52.472;-1.950;2022-11-20T18:25:25;2.03;;;1.30;;
61330;SDS011;57640;52.472;-1.950;2022-11-20T18:28:30;2.80;;;1.27;;
61330;SDS011;57640;52.472;-1.950;2022-11-20T18:31:35;1.85;;;1.20;;
61330;SDS011;57640;52.472;-1.950;2022-11-20T18:34:41;2.60;;;1.40;;
61330;SDS011;57640;52.472;-1.950;2022-11-20T18:37:49;2.00;;;1.30;;
61330;SDS011;57640;52.472;-1.950;2022-11-20T18:40:54;2.13;;;1.23;;
61330;SDS011;57640;52.472;-1.950;2022-11-20T18:43:59;1.73;;;1.00;;
61330;SDS011;57640;52.472;-1.950;2022-11-20T18:47:18;2.58;;;1.15;;
61330;SDS011;57640;52.472;-1.950;2022-11-20T18:50:24;2.67;;;1.35;;